createdAt,value
2023-05-08T00:02:24.617Z,9.00
2023-05-08T00:04:52.774Z,6.00
2023-05-08T00:07:20.875Z,6.40
2023-05-08T00:09:49.051Z,4.80
2023-05-08T00:12:17.164Z,8.20
2023-05-08T00:14:45.340Z,7.00
2023-05-08T00:17:14.868Z,1.00
2023-05-08T00:19:42.921Z,8.60
2023-05-08T00:22:11.119Z,7.00
2023-05-08T00:24:39.423Z,7.00
2023-05-08T00:27:08.283Z,4.00
2023-05-08T00:29:36.434Z,5.60
2023-05-08T00:32:04.601Z,6.20
2023-05-08T00:34:34.139Z,6.40
2023-05-08T00:37:03.076Z,9.00
2023-05-08T00:39:31.241Z,8.20
2023-05-08T00:41:59.452Z,7.80
2023-05-08T00:44:27.662Z,5.20
2023-05-08T00:46:56.069Z,7.00
2023-05-08T00:49:24.698Z,3.00
2023-05-08T00:51:55.939Z,3.60
2023-05-08T00:54:24.692Z,6.40
2023-05-08T00:56:53.319Z,7.00
2023-05-08T00:59:22.762Z,6.00
2023-05-08T01:01:52.188Z,8.20
2023-05-08T01:04:21.494Z,4.40
2023-05-08T01:06:50.990Z,6.00
2023-05-08T01:09:20.808Z,7.00
2023-05-08T01:11:51.259Z,4.00
2023-05-08T01:14:22.642Z,6.80
2023-05-08T01:16:57.761Z,4.00
2023-05-08T01:19:42.103Z,7.00
2023-05-08T01:22:12.550Z,8.80
2023-05-08T01:24:55.764Z,6.20
2023-05-08T01:27:41.084Z,6.00
2023-05-08T01:30:22.334Z,7.00
2023-05-08T01:32:57.086Z,4.00
2023-05-08T01:35:28.741Z,7.00
2023-05-08T01:37:59.809Z,8.20
2023-05-08T01:40:34.351Z,6.00
2023-05-08T01:43:12.221Z,7.00
2023-05-08T01:45:41.305Z,6.00
2023-05-08T01:48:13.556Z,7.80
2023-05-08T01:50:46.215Z,6.75
2023-05-08T01:53:21.416Z,7.50
2023-05-08T01:55:51.345Z,7.50
2023-05-08T01:58:20.187Z,7.00
2023-05-08T02:00:49.453Z,8.50
2023-05-08T02:03:19.553Z,5.00
2023-05-08T02:05:49.920Z,6.25
2023-05-08T02:08:19.364Z,7.00
2023-05-08T02:10:48.799Z,9.00
2023-05-08T02:13:19.318Z,9.50
2023-05-08T02:15:49.213Z,10.00
2023-05-08T02:18:20.073Z,7.25
2023-05-08T02:20:50.631Z,7.25
2023-05-08T02:23:39.603Z,7.25
2023-05-08T02:26:07.759Z,3.00
2023-05-08T02:28:37.338Z,7.50
2023-05-08T02:31:06.535Z,8.25
2023-05-08T02:33:35.868Z,5.50
2023-05-08T02:36:05.931Z,8.50
2023-05-08T02:38:36.657Z,8.25
2023-05-08T02:41:10.171Z,9.00
2023-05-08T02:43:38.460Z,10.00
2023-05-08T02:46:12.036Z,10.00
2023-05-08T02:48:43.134Z,8.75
2023-05-08T02:51:18.249Z,8.75
2023-05-08T02:53:47.980Z,9.00
2023-05-08T02:56:20.702Z,10.25
2023-05-08T02:58:53.947Z,6.25
2023-05-08T03:01:27.249Z,7.25
2023-05-08T03:04:00.961Z,7.50
2023-05-08T03:06:32.986Z,4.00
2023-05-08T03:09:02.606Z,7.50
2023-05-08T03:11:34.832Z,7.00
2023-05-08T03:14:03.869Z,8.50
2023-05-08T03:16:34.114Z,8.00
2023-05-08T03:19:03.804Z,6.00
2023-05-08T03:21:33.571Z,8.50
2023-05-08T03:24:03.344Z,7.00
2023-05-08T03:26:31.990Z,10.00
2023-05-08T03:29:00.396Z,7.50
2023-05-08T03:31:33.500Z,4.00
2023-05-08T03:34:02.390Z,7.00
2023-05-08T03:36:31.777Z,7.00
2023-05-08T03:39:02.391Z,3.00
2023-05-08T03:41:30.871Z,6.00
2023-05-08T03:43:59.890Z,6.50
2023-05-08T03:46:28.160Z,7.50
2023-05-08T03:49:00.336Z,5.00
2023-05-08T03:51:29.313Z,5.50
2023-05-08T03:53:57.420Z,6.00
2023-05-08T03:56:29.126Z,5.50
2023-05-08T03:59:01.953Z,6.00
2023-05-08T04:01:41.489Z,3.75
2023-05-08T04:04:16.421Z,6.50
2023-05-08T04:06:50.596Z,6.75
2023-05-08T04:09:28.480Z,5.00
2023-05-08T04:12:02.216Z,4.50
2023-05-08T04:14:34.169Z,5.50
2023-05-08T04:17:04.873Z,5.00
2023-05-08T04:19:37.546Z,6.00
2023-05-08T04:22:07.793Z,1.00
2023-05-08T04:24:40.783Z,2.50
2023-05-08T04:27:11.949Z,2.00
2023-05-08T04:29:40.793Z,4.00
2023-05-08T04:32:10.500Z,3.00
2023-05-08T04:34:39.969Z,2.50
2023-05-08T04:37:08.628Z,3.50
2023-05-08T04:39:37.349Z,2.00
2023-05-08T04:42:05.791Z,2.00
2023-05-08T04:44:37.529Z,2.00
2023-05-08T04:47:05.972Z,2.50
2023-05-08T04:49:34.117Z,2.50
2023-05-08T04:52:02.354Z,2.00
2023-05-08T04:54:31.049Z,2.00
2023-05-08T04:56:59.771Z,2.00
2023-05-08T04:59:28.288Z,1.00
2023-05-08T05:01:58.869Z,2.00
2023-05-08T05:04:27.288Z,1.00
2023-05-08T05:06:57.274Z,2.00
2023-05-08T05:09:26.031Z,1.00
2023-05-08T05:11:55.160Z,1.25
2023-05-08T05:14:24.521Z,0.25
2023-05-08T05:16:52.914Z,2.00
2023-05-08T05:19:22.498Z,2.00
2023-05-08T05:21:50.789Z,2.50
2023-05-08T05:24:19.000Z,2.00
2023-05-08T05:26:47.364Z,0.00
2023-05-08T05:29:16.693Z,1.00
2023-05-08T05:31:45.060Z,1.00
2023-05-08T05:34:13.515Z,0.00
2023-05-08T05:36:44.193Z,0.75
2023-05-08T05:39:12.517Z,0.00
2023-05-08T05:41:44.264Z,0.00
2023-05-08T05:44:13.201Z,1.00
2023-05-08T05:46:44.220Z,1.00
2023-05-08T05:49:13.218Z,0.00
2023-05-08T05:51:41.809Z,0.00
2023-05-08T05:54:11.914Z,0.00
2023-05-08T05:56:40.184Z,0.00
2023-05-08T05:59:08.988Z,0.00
2023-05-08T06:01:37.500Z,0.00
2023-05-08T06:04:05.894Z,0.25
2023-05-08T06:06:34.977Z,0.00
2023-05-08T06:09:04.425Z,1.00
2023-05-08T06:11:33.980Z,0.00
2023-05-08T06:14:02.376Z,0.00
2023-05-08T06:16:31.340Z,0.00
2023-05-08T06:18:59.594Z,0.00
2023-05-08T06:21:28.716Z,0.00
2023-05-08T06:23:56.898Z,0.00
2023-05-08T06:26:25.195Z,0.00
2023-05-08T06:28:54.697Z,0.75
2023-05-08T06:31:23.006Z,0.00
2023-05-08T06:33:51.186Z,0.00
2023-05-08T06:36:19.368Z,0.00
2023-05-08T06:38:47.648Z,0.00
2023-05-08T06:41:15.829Z,0.00
2023-05-08T06:43:43.990Z,0.00
2023-05-08T06:46:13.560Z,0.00
2023-05-08T06:48:41.792Z,0.00
2023-05-08T06:51:09.889Z,0.00
2023-05-08T06:53:38.228Z,0.00
2023-05-08T06:56:07.091Z,0.00
2023-05-08T06:58:35.899Z,0.00
2023-05-08T07:01:04.212Z,0.00
2023-05-08T07:03:33.792Z,0.00
2023-05-08T07:06:02.020Z,0.00
2023-05-08T07:08:47.495Z,0.00
2023-05-08T07:11:15.730Z,0.00
2023-05-08T07:13:46.209Z,0.00
2023-05-08T07:16:33.134Z,0.00
2023-05-08T07:19:02.946Z,0.00
2023-05-08T07:21:31.361Z,0.00
2023-05-08T07:24:17.966Z,0.00
2023-05-08T07:27:03.987Z,0.00
2023-05-08T07:29:49.626Z,0.00
2023-05-08T07:32:18.037Z,0.00
2023-05-08T07:34:47.622Z,0.00
2023-05-08T07:37:16.576Z,0.00
2023-05-08T07:39:44.729Z,0.00
2023-05-08T07:42:12.940Z,0.00
2023-05-08T07:44:53.833Z,0.00
2023-05-08T07:47:23.626Z,0.00
2023-05-08T07:49:53.214Z,0.00
2023-05-08T07:52:21.932Z,0.00
2023-05-08T07:54:50.150Z,0.00
2023-05-08T07:57:18.358Z,0.00
2023-05-08T07:59:46.496Z,0.00
2023-05-08T08:02:14.929Z,0.00
2023-05-08T08:04:43.192Z,0.00
2023-05-08T08:07:12.778Z,0.00
2023-05-08T08:09:53.646Z,0.00
2023-05-08T08:12:21.929Z,0.00
2023-05-08T08:14:50.172Z,0.00
2023-05-08T08:17:18.636Z,0.00
2023-05-08T08:19:47.058Z,0.00
2023-05-08T08:22:18.659Z,0.00
2023-05-08T08:24:47.127Z,0.00
2023-05-08T08:27:15.294Z,0.00
2023-05-08T08:29:43.481Z,0.00
2023-05-08T08:32:11.781Z,0.00
2023-05-08T08:34:39.928Z,0.00
2023-05-08T08:37:08.105Z,0.00
2023-05-08T08:39:37.727Z,0.00
2023-05-08T08:42:24.765Z,0.00
2023-05-08T08:44:52.948Z,0.00
2023-05-08T08:47:24.431Z,0.00
2023-05-08T08:49:52.751Z,0.00
2023-05-08T08:52:28.444Z,0.00
2023-05-08T08:54:58.457Z,0.00
2023-05-08T08:57:27.762Z,0.00
2023-05-08T08:59:56.867Z,1.00
2023-05-08T09:02:27.123Z,0.00
2023-05-08T09:04:55.415Z,0.00
2023-05-08T09:07:24.333Z,0.00
2023-05-08T09:09:53.365Z,0.25
2023-05-08T09:12:22.966Z,0.00
2023-05-08T09:14:51.993Z,0.00
2023-05-08T09:17:20.482Z,0.00
2023-05-08T09:19:50.144Z,0.00
2023-05-08T09:22:18.882Z,0.00
2023-05-08T09:25:04.930Z,0.50
2023-05-08T09:27:52.082Z,0.00
2023-05-08T09:30:22.050Z,0.25
2023-05-08T09:33:09.361Z,0.00
2023-05-08T09:35:38.058Z,0.25
2023-05-08T09:38:06.383Z,1.00
2023-05-08T09:40:34.692Z,0.00
2023-05-08T09:43:13.521Z,0.00
2023-05-08T09:45:43.272Z,0.00
2023-05-08T09:48:12.348Z,0.00
2023-05-08T09:50:41.693Z,1.00
2023-05-08T09:53:11.717Z,0.00
2023-05-08T09:55:49.127Z,1.00
2023-05-08T09:58:17.314Z,1.00
2023-05-08T10:00:47.006Z,1.00
2023-05-08T10:03:15.293Z,0.00
2023-05-08T10:05:43.611Z,1.00
2023-05-08T10:08:21.617Z,0.50
2023-05-08T10:10:51.049Z,0.00
2023-05-08T10:13:19.291Z,1.00
2023-05-08T10:15:51.882Z,1.00
2023-05-08T10:18:21.145Z,0.00
2023-05-08T10:20:50.178Z,0.00
2023-05-08T10:23:19.367Z,0.00
2023-05-08T10:25:48.268Z,0.00
2023-05-08T10:28:18.127Z,0.00
2023-05-08T10:30:49.413Z,0.00
2023-05-08T10:33:21.366Z,0.00
2023-05-08T10:35:49.684Z,0.00
2023-05-08T10:38:18.128Z,0.50
2023-05-08T10:40:46.541Z,0.00
2023-05-08T10:43:15.975Z,1.00
2023-05-08T10:45:44.686Z,2.00
2023-05-08T10:48:20.753Z,1.00
2023-05-08T10:50:53.191Z,0.00
2023-05-08T10:53:23.943Z,1.00
2023-05-08T10:55:53.067Z,0.00
2023-05-08T10:58:32.048Z,0.00
2023-05-08T11:01:13.585Z,1.00
2023-05-08T11:03:44.231Z,1.00
2023-05-08T11:06:13.041Z,0.50
2023-05-08T11:08:48.545Z,1.00
2023-05-08T11:11:26.976Z,1.75
2023-05-08T11:13:56.686Z,1.00
2023-05-08T11:16:45.690Z,1.00
2023-05-08T11:19:18.952Z,1.00
2023-05-08T11:22:05.054Z,1.00
2023-05-08T11:24:36.172Z,0.50
2023-05-08T11:27:04.517Z,0.25
2023-05-08T11:29:34.286Z,0.50
2023-05-08T11:32:02.547Z,0.00
2023-05-08T11:34:50.810Z,0.50
2023-05-08T11:37:19.566Z,1.00
2023-05-08T11:39:48.410Z,1.00
2023-05-08T11:42:34.644Z,1.00
2023-05-08T11:45:05.699Z,0.00
2023-05-08T11:47:38.922Z,1.00
2023-05-08T11:50:09.690Z,0.50
2023-05-08T11:52:38.424Z,1.00
2023-05-08T11:55:07.338Z,0.00
2023-05-08T11:57:35.657Z,0.00
2023-05-08T12:00:06.051Z,0.00
2023-05-08T12:02:40.758Z,1.00
2023-05-08T12:05:11.761Z,0.50
2023-05-08T12:07:46.916Z,0.50
2023-05-08T12:10:16.667Z,0.00
2023-05-08T12:12:46.580Z,1.00
2023-05-08T12:15:15.686Z,0.00
2023-05-08T12:17:44.184Z,0.00
2023-05-08T12:20:15.213Z,0.25
2023-05-08T12:22:44.489Z,0.00
2023-05-08T12:25:13.077Z,0.50
2023-05-08T12:27:41.490Z,0.00
2023-05-08T12:30:10.934Z,1.00
2023-05-08T12:32:40.385Z,1.00
2023-05-08T12:35:09.160Z,0.00
2023-05-08T12:37:39.154Z,1.00
2023-05-08T12:40:08.105Z,0.00
2023-05-08T12:42:42.883Z,1.00
2023-05-08T12:45:17.817Z,1.50
2023-05-08T12:47:49.273Z,1.00
2023-05-08T12:50:21.219Z,0.00
2023-05-08T12:52:51.947Z,1.00
2023-05-08T12:55:26.084Z,0.00
2023-05-08T12:58:01.076Z,0.00
2023-05-08T13:00:36.332Z,0.00
2023-05-08T13:03:04.770Z,0.00
2023-05-08T13:05:33.429Z,0.75
2023-05-08T13:08:03.664Z,0.00
2023-05-08T13:10:48.027Z,0.00
2023-05-08T13:13:17.225Z,0.00
2023-05-08T13:15:46.099Z,0.00
2023-05-08T13:18:14.832Z,0.50
2023-05-08T13:20:43.520Z,0.00
2023-05-08T13:23:13.234Z,1.50
2023-05-08T13:25:41.935Z,1.00
2023-05-08T13:28:10.891Z,0.75
2023-05-08T13:30:39.395Z,0.50
2023-05-08T13:33:07.960Z,1.00
2023-05-08T13:35:36.492Z,1.00
2023-05-08T13:38:04.608Z,1.00
2023-05-08T13:40:35.394Z,1.25
2023-05-08T13:43:03.644Z,1.00
2023-05-08T13:45:33.097Z,1.75
2023-05-08T13:48:01.578Z,1.00
2023-05-08T13:50:29.930Z,1.00
2023-05-08T13:52:58.187Z,0.00
2023-05-08T13:55:26.396Z,1.50
2023-05-08T13:57:58.234Z,2.00
2023-05-08T14:00:28.031Z,1.00
2023-05-08T14:02:56.810Z,0.75
2023-05-08T14:05:25.031Z,1.00
2023-05-08T14:07:53.456Z,1.00
2023-05-08T14:10:21.726Z,1.00
2023-05-08T14:12:50.068Z,1.00
2023-05-08T14:15:19.813Z,2.00
2023-05-08T14:17:48.573Z,1.00
2023-05-08T14:20:17.308Z,1.50
2023-05-08T14:22:47.239Z,1.50
2023-05-08T14:25:15.753Z,1.00
2023-05-08T14:27:44.169Z,2.00
2023-05-08T14:30:13.314Z,1.25
2023-05-08T14:32:43.326Z,1.50
2023-05-08T14:35:12.235Z,2.50
2023-05-08T14:37:41.065Z,3.00
2023-05-08T14:40:10.566Z,2.25
2023-05-08T14:42:38.866Z,2.00
2023-05-08T14:45:07.586Z,2.00
2023-05-08T14:47:35.990Z,2.50
2023-05-08T14:50:05.790Z,1.25
2023-05-08T14:52:34.074Z,1.00
2023-05-08T14:55:02.725Z,2.00
2023-05-08T14:57:32.687Z,1.00
2023-05-08T15:00:00.848Z,1.00
2023-05-08T15:02:29.097Z,1.00
2023-05-08T15:04:57.377Z,1.00
2023-05-08T15:07:27.147Z,1.00
2023-05-08T15:09:55.400Z,1.75
2023-05-08T15:12:23.595Z,1.00
2023-05-08T15:14:51.794Z,1.00
2023-05-08T15:17:20.157Z,1.50
2023-05-08T15:19:48.502Z,0.00
2023-05-08T15:22:17.858Z,1.00
2023-05-08T15:24:47.499Z,1.00
2023-05-08T15:27:15.647Z,1.00
2023-05-08T15:29:43.800Z,1.00
2023-05-08T15:32:12.041Z,1.00
2023-05-08T15:34:40.863Z,1.00
2023-05-08T15:37:09.221Z,1.00
2023-05-08T15:39:37.551Z,2.00
2023-05-08T15:42:07.726Z,1.00
2023-05-08T15:47:07.225Z,1.75
2023-05-08T15:49:35.375Z,5.00
2023-05-08T15:52:03.663Z,4.00
2023-05-08T15:54:31.856Z,2.50
2023-05-08T15:57:00.000Z,3.00
2023-05-08T15:59:29.582Z,4.50
2023-05-08T16:01:57.841Z,3.50
2023-05-08T16:04:26.061Z,6.00
2023-05-08T16:06:54.313Z,4.50
2023-05-08T16:09:22.684Z,4.50
2023-05-08T16:11:50.896Z,4.50
2023-05-08T16:14:20.187Z,5.00
2023-05-08T16:16:49.941Z,5.25
2023-05-08T16:19:18.117Z,3.00
2023-05-08T16:21:47.777Z,5.00
2023-05-08T16:24:16.068Z,5.00
2023-05-08T16:26:44.237Z,3.50
2023-05-08T16:29:12.506Z,2.50
2023-05-08T16:31:40.882Z,3.00
2023-05-08T16:34:10.451Z,3.00
2023-05-08T16:36:38.989Z,4.00
2023-05-08T16:39:07.251Z,1.50
2023-05-08T16:41:36.178Z,3.00
2023-05-08T16:44:04.322Z,6.00
2023-05-08T16:46:32.554Z,3.00
2023-05-08T16:49:00.879Z,3.50
2023-05-08T16:51:30.897Z,6.00
2023-05-08T16:53:59.107Z,2.00
2023-05-08T16:56:27.328Z,2.00
2023-05-08T16:58:56.103Z,2.00
2023-05-08T17:01:24.362Z,2.00
2023-05-08T17:03:52.541Z,3.00
2023-05-08T17:06:21.238Z,2.00
2023-05-08T17:08:50.853Z,3.25
2023-05-08T17:11:19.084Z,3.00
2023-05-08T17:13:48.240Z,3.00
2023-05-08T17:16:18.248Z,3.25
2023-05-08T17:18:48.050Z,4.00
2023-05-08T17:21:16.685Z,5.00
2023-05-08T17:23:45.784Z,5.25
2023-05-08T17:26:15.444Z,6.00
2023-05-08T17:28:43.874Z,4.50
2023-05-08T17:31:13.236Z,5.00
2023-05-08T17:33:41.402Z,4.00
2023-05-08T17:36:10.008Z,6.00
2023-05-08T17:38:43.721Z,5.00
2023-05-08T17:41:12.154Z,6.50
2023-05-08T17:43:42.056Z,6.00
2023-05-08T17:46:10.354Z,4.75
2023-05-08T17:48:38.650Z,8.00
2023-05-08T17:51:06.901Z,4.75
2023-05-08T17:53:35.252Z,6.00
2023-05-08T17:56:03.468Z,6.00
2023-05-08T17:58:31.661Z,7.50
2023-05-08T18:01:01.418Z,10.00
2023-05-08T18:03:29.826Z,18.20
2023-05-08T18:05:58.004Z,22.40
2023-05-08T18:08:26.137Z,21.00
2023-05-08T18:10:54.388Z,27.60
2023-05-08T18:13:22.749Z,25.40
2023-05-08T18:15:51.416Z,23.80
2023-05-08T18:18:21.024Z,22.00
2023-05-08T18:20:49.240Z,30.20
2023-05-08T18:23:17.620Z,21.00
2023-05-08T18:25:45.852Z,17.20
2023-05-08T18:28:14.128Z,17.25
2023-05-08T18:30:42.536Z,16.50
2023-05-08T18:33:10.942Z,15.25
2023-05-08T18:35:40.756Z,11.00
2023-05-08T18:38:09.020Z,10.50
2023-05-08T18:40:37.197Z,12.00
2023-05-08T18:43:05.409Z,11.50
2023-05-08T18:45:33.594Z,11.00
2023-05-08T18:48:02.117Z,9.00
2023-05-08T18:50:30.627Z,8.00
2023-05-08T18:53:00.292Z,11.00
2023-05-08T18:55:28.639Z,8.00
2023-05-08T18:57:56.806Z,7.00
2023-05-08T19:00:25.368Z,8.00
2023-05-08T19:02:53.708Z,7.75
2023-05-08T19:05:22.174Z,8.75
2023-05-08T19:07:50.277Z,11.75
2023-05-08T19:10:19.936Z,10.00
2023-05-08T19:12:49.519Z,12.25
2023-05-08T19:15:17.807Z,4.00
2023-05-08T19:17:45.992Z,4.00
2023-05-08T19:20:15.115Z,9.75
2023-05-08T19:22:44.361Z,8.50
2023-05-08T19:25:13.236Z,9.00
2023-05-08T19:27:43.188Z,6.25
2023-05-08T19:30:12.240Z,11.00
2023-05-08T19:32:41.276Z,8.50
2023-05-08T19:35:09.954Z,7.50
2023-05-08T19:37:38.419Z,8.00
2023-05-08T19:40:07.045Z,7.00
2023-05-08T19:42:36.054Z,8.50
2023-05-08T19:45:06.352Z,9.00
2023-05-08T19:47:35.093Z,8.75
2023-05-08T19:50:03.351Z,8.00
2023-05-08T19:52:32.451Z,7.00
2023-05-08T19:55:00.640Z,10.00
2023-05-08T19:57:28.830Z,8.00
2023-05-08T19:59:57.240Z,8.75
2023-05-08T20:02:27.062Z,8.50
2023-05-08T20:05:18.816Z,8.00
2023-05-08T20:07:43.772Z,6.25
2023-05-08T20:10:12.440Z,3.75
2023-05-08T20:12:40.824Z,9.00
2023-05-08T20:15:09.568Z,7.00
2023-05-08T20:17:39.212Z,4.00
2023-05-08T20:20:08.225Z,6.75
2023-05-08T20:22:37.859Z,7.50
2023-05-08T20:25:06.420Z,6.25
2023-05-08T20:27:34.617Z,7.00
2023-05-08T20:30:03.054Z,0.75
2023-05-08T20:32:33.965Z,7.00
2023-05-08T20:35:03.671Z,7.50
2023-05-08T20:37:33.346Z,7.00
2023-05-08T20:40:04.946Z,5.00
2023-05-08T20:42:33.615Z,4.00
2023-05-08T20:45:01.783Z,4.00
2023-05-08T20:47:33.143Z,6.00
2023-05-08T20:50:01.340Z,5.75
2023-05-08T20:52:35.328Z,6.25
2023-05-08T20:55:06.120Z,6.00
2023-05-08T20:57:34.842Z,6.00
2023-05-08T21:00:03.462Z,9.00
2023-05-08T21:02:38.972Z,7.00
2023-05-08T21:05:07.977Z,7.00
2023-05-08T21:07:37.617Z,7.00
2023-05-08T21:10:06.134Z,8.00
2023-05-08T21:12:35.104Z,6.50
2023-05-08T21:15:03.424Z,10.00
2023-05-08T21:17:33.683Z,8.00
2023-05-08T21:20:01.900Z,6.50
2023-05-08T21:22:34.365Z,12.00
2023-05-08T21:25:17.318Z,9.25
2023-05-08T21:27:45.659Z,6.40
2023-05-08T21:30:16.539Z,6.00
2023-05-08T21:32:45.336Z,9.00
2023-05-08T21:35:14.061Z,9.50
2023-05-08T21:37:42.766Z,9.00
2023-05-08T21:40:11.146Z,9.00
2023-05-08T21:42:40.897Z,10.00
2023-05-08T21:45:09.776Z,11.00
2023-05-08T21:47:37.975Z,10.00
2023-05-08T21:50:06.701Z,13.00
2023-05-08T21:52:35.079Z,14.00
2023-05-08T21:55:08.522Z,13.20
2023-05-08T21:57:36.883Z,15.80
2023-05-08T22:00:07.359Z,13.20
2023-05-08T22:02:36.491Z,14.60
2023-05-08T22:05:05.048Z,17.00
2023-05-08T22:07:33.503Z,11.60
2023-05-08T22:10:01.696Z,17.80
2023-05-08T22:12:30.686Z,13.00
2023-05-08T22:14:58.937Z,4.60
2023-05-08T22:17:28.949Z,15.00
2023-05-08T22:19:57.065Z,11.40
2023-05-08T22:22:25.241Z,14.60
2023-05-08T22:24:53.381Z,18.00
2023-05-08T22:27:21.507Z,15.60
2023-05-08T22:29:49.615Z,15.00
2023-05-08T22:32:18.169Z,14.40
2023-05-08T22:34:50.048Z,15.80
2023-05-08T22:37:18.697Z,18.40
2023-05-08T22:39:46.804Z,18.40
2023-05-08T22:42:15.206Z,18.20
2023-05-08T22:44:43.510Z,18.80
2023-05-08T22:47:12.072Z,20.80
2023-05-08T22:49:41.229Z,20.00
2023-05-08T22:52:10.928Z,19.40
2023-05-08T22:54:39.077Z,17.60
2023-05-08T22:57:07.275Z,20.00
2023-05-08T22:59:35.568Z,19.40
2023-05-08T23:02:03.761Z,19.80
2023-05-08T23:04:32.143Z,17.00
2023-05-08T23:07:00.302Z,17.60
2023-05-08T23:09:30.972Z,14.80
2023-05-08T23:11:59.258Z,17.00
2023-05-08T23:14:27.387Z,11.00
2023-05-08T23:16:55.543Z,20.20
2023-05-08T23:19:23.622Z,0.00
2023-05-08T23:21:51.962Z,15.75
2023-05-08T23:24:20.115Z,17.00
2023-05-08T23:26:49.868Z,18.00
2023-05-08T23:29:17.984Z,19.80
2023-05-08T23:31:46.127Z,14.40
2023-05-08T23:34:14.275Z,17.00
2023-05-08T23:36:42.386Z,14.80
2023-05-08T23:39:10.471Z,19.00
2023-05-08T23:41:38.865Z,20.20
2023-05-08T23:44:08.634Z,17.00
2023-05-08T23:46:36.769Z,21.60
2023-05-08T23:49:05.619Z,20.00
2023-05-08T23:51:33.748Z,17.20
2023-05-08T23:54:01.872Z,17.80
2023-05-08T23:56:30.943Z,18.00
2023-05-08T23:58:59.040Z,18.20
